createdAt,value
2019-01-19T00:00:45.784Z,99.99
2019-01-19T00:01:45.766Z,99.99
2019-01-19T00:02:45.747Z,99.99
2019-01-19T00:03:45.728Z,99.99
2019-01-19T00:04:45.709Z,99.99
2019-01-19T00:05:45.690Z,99.99
2019-01-19T00:06:45.674Z,99.99
2019-01-19T00:07:45.653Z,99.99
2019-01-19T00:08:45.670Z,99.99
2019-01-19T00:09:45.615Z,99.99
2019-01-19T00:10:45.596Z,99.99
2019-01-19T00:11:45.577Z,99.99
2019-01-19T00:12:45.560Z,99.99
2019-01-19T00:13:45.543Z,99.99
2019-01-19T00:14:45.522Z,99.99
2019-01-19T00:15:45.505Z,99.99
2019-01-19T00:16:45.486Z,99.99
2019-01-19T00:17:45.467Z,99.99
2019-01-19T00:18:45.450Z,99.99
2019-01-19T00:19:45.429Z,99.99
2019-01-19T00:20:45.412Z,99.99
2019-01-19T00:21:45.393Z,99.99
2019-01-19T00:22:45.375Z,99.99
2019-01-19T00:23:45.357Z,99.99
2019-01-19T00:24:45.338Z,99.99
2019-01-19T00:25:45.319Z,99.99
2019-01-19T00:26:45.300Z,99.99
2019-01-19T00:27:45.282Z,99.99
2019-01-19T00:28:45.264Z,99.99
2019-01-19T00:29:45.244Z,99.99
2019-01-19T00:30:45.228Z,99.99
2019-01-19T00:31:45.211Z,99.99
2019-01-19T00:32:45.190Z,99.99
2019-01-19T00:33:45.172Z,99.99
2019-01-19T00:34:45.153Z,99.99
2019-01-19T00:35:45.134Z,99.99
2019-01-19T00:36:45.116Z,99.99
2019-01-19T00:37:45.097Z,99.99
2019-01-19T00:38:45.125Z,99.99
2019-01-19T00:39:45.061Z,99.99
2019-01-19T00:40:45.043Z,99.99
2019-01-19T00:41:45.024Z,99.99
2019-01-19T00:42:45.004Z,99.99
2019-01-19T00:43:44.987Z,99.99
2019-01-19T00:44:44.970Z,99.99
2019-01-19T00:45:44.951Z,99.99
2019-01-19T00:46:44.933Z,99.99
2019-01-19T00:47:44.914Z,99.99
2019-01-19T00:48:44.896Z,99.99
2019-01-19T00:49:44.876Z,99.99
2019-01-19T00:50:44.859Z,99.99
2019-01-19T00:51:44.842Z,99.99
2019-01-19T00:52:44.821Z,99.99
2019-01-19T00:53:44.803Z,99.99
2019-01-19T00:54:44.786Z,99.99
2019-01-19T00:55:44.766Z,99.99
2019-01-19T00:56:44.747Z,99.99
2019-01-19T00:57:44.727Z,99.99
2019-01-19T00:58:44.710Z,99.99
2019-01-19T00:59:44.692Z,99.99
2019-01-19T01:00:44.675Z,99.99
2019-01-19T01:01:44.655Z,99.99
2019-01-19T01:02:44.636Z,99.99
2019-01-19T01:03:44.620Z,99.99
2019-01-19T01:04:44.601Z,99.99
2019-01-19T01:05:44.578Z,99.99
2019-01-19T01:06:44.561Z,99.99
2019-01-19T01:07:44.541Z,99.99
2019-01-19T01:08:44.525Z,99.99
2019-01-19T01:09:44.504Z,99.99
2019-01-19T01:10:44.486Z,99.99
2019-01-19T01:11:44.468Z,99.99
2019-01-19T01:12:44.450Z,99.99
2019-01-19T01:13:44.440Z,99.99
2019-01-19T01:14:44.412Z,99.99
2019-01-19T01:15:44.393Z,99.99
2019-01-19T01:16:44.375Z,99.99
2019-01-19T01:17:44.356Z,99.99
2019-01-19T01:18:44.338Z,99.99
2019-01-19T01:19:44.319Z,99.99
2019-01-19T01:20:44.301Z,99.99
2019-01-19T01:21:44.281Z,99.99
2019-01-19T01:22:44.263Z,99.99
2019-01-19T01:23:44.247Z,99.99
2019-01-19T01:24:44.226Z,99.99
2019-01-19T01:25:44.207Z,99.99
2019-01-19T01:26:44.189Z,99.99
2019-01-19T01:27:44.171Z,99.99
2019-01-19T01:28:44.153Z,99.99
2019-01-19T01:29:44.133Z,99.99
2019-01-19T01:30:44.115Z,99.99
2019-01-19T01:31:44.095Z,99.99
2019-01-19T01:32:44.078Z,99.99
2019-01-19T01:33:44.057Z,99.99
2019-01-19T01:34:44.039Z,99.99
2019-01-19T01:35:44.021Z,99.99
2019-01-19T01:36:44.002Z,99.99
2019-01-19T01:37:43.983Z,99.99
2019-01-19T01:38:43.964Z,99.99
2019-01-19T01:39:43.946Z,99.99
2019-01-19T01:40:43.929Z,99.99
2019-01-19T01:41:43.908Z,99.99
2019-01-19T01:42:43.890Z,99.99
2019-01-19T01:43:43.872Z,99.99
2019-01-19T01:44:43.852Z,99.99
2019-01-19T01:45:43.833Z,99.99
2019-01-19T01:46:43.818Z,99.99
2019-01-19T01:47:43.797Z,99.99
2019-01-19T01:48:43.791Z,99.99
2019-01-19T01:49:43.759Z,99.99
2019-01-19T01:50:43.742Z,99.99
2019-01-19T01:51:43.721Z,99.99
2019-01-19T01:52:43.704Z,99.99
2019-01-19T01:53:43.685Z,99.99
2019-01-19T01:54:43.665Z,99.99
2019-01-19T01:55:43.647Z,99.99
2019-01-19T01:56:43.629Z,99.99
2019-01-19T01:57:43.609Z,99.99
2019-01-19T01:58:43.591Z,99.99
2019-01-19T01:59:43.573Z,99.99
2019-01-19T02:00:43.556Z,99.99
2019-01-19T02:01:43.535Z,99.99
2019-01-19T02:02:43.517Z,99.99
2019-01-19T02:03:43.498Z,99.99
2019-01-19T02:04:43.479Z,99.99
2019-01-19T02:05:43.461Z,99.99
2019-01-19T02:06:43.441Z,99.99
2019-01-19T02:07:43.424Z,99.99
2019-01-19T02:08:43.405Z,99.99
2019-01-19T02:09:43.384Z,99.99
2019-01-19T02:10:43.370Z,99.99
2019-01-19T02:11:43.348Z,99.99
2019-01-19T02:12:43.329Z,99.99
2019-01-19T02:13:43.313Z,99.99
2019-01-19T02:14:43.291Z,99.99
2019-01-19T02:15:43.276Z,99.99
2019-01-19T02:16:43.255Z,99.99
2019-01-19T02:17:43.236Z,99.99
2019-01-19T02:18:43.217Z,99.99
2019-01-19T02:19:43.202Z,99.99
2019-01-19T02:20:43.179Z,99.99
2019-01-19T02:21:43.162Z,99.99
2019-01-19T02:22:43.142Z,99.99
2019-01-19T02:23:43.123Z,99.99
2019-01-19T02:24:43.104Z,99.99
2019-01-19T02:25:43.087Z,99.99
2019-01-19T02:26:43.070Z,99.99
2019-01-19T02:27:43.050Z,99.99
2019-01-19T02:28:43.031Z,99.99
2019-01-19T02:29:43.011Z,99.99
2019-01-19T02:30:42.994Z,99.99
2019-01-19T02:31:42.975Z,99.99
2019-01-19T02:32:42.957Z,99.99
2019-01-19T02:33:42.938Z,99.99
2019-01-19T02:34:42.918Z,99.99
2019-01-19T02:35:48.303Z,99.99
2019-01-19T02:36:42.884Z,99.99
2019-01-19T02:37:42.867Z,99.99
2019-01-19T02:38:42.843Z,99.99
2019-01-19T02:39:42.825Z,99.99
2019-01-19T02:40:42.814Z,99.99
2019-01-19T02:41:42.787Z,99.99
2019-01-19T02:42:42.769Z,99.99
2019-01-19T02:43:42.753Z,99.99
2019-01-19T02:44:42.735Z,99.99
2019-01-19T02:45:42.712Z,99.99
2019-01-19T02:46:42.693Z,99.99
2019-01-19T02:47:42.675Z,99.99
2019-01-19T02:48:42.664Z,99.99
2019-01-19T02:49:42.641Z,99.99
2019-01-19T02:50:42.625Z,99.99
2019-01-19T02:51:42.600Z,99.99
2019-01-19T02:52:42.584Z,99.99
2019-01-19T02:53:42.563Z,99.99
2019-01-19T02:54:42.544Z,99.99
2019-01-19T02:55:42.525Z,99.99
2019-01-19T02:56:42.507Z,99.99
2019-01-19T02:57:42.489Z,99.99
2019-01-19T02:58:42.470Z,99.99
2019-01-19T02:59:42.452Z,99.99
2019-01-19T03:00:42.432Z,99.99
2019-01-19T03:01:42.413Z,99.99
2019-01-19T03:02:42.394Z,99.99
2019-01-19T03:03:42.377Z,99.99
2019-01-19T03:04:42.361Z,99.99
2019-01-19T03:05:42.338Z,99.99
2019-01-19T03:06:42.319Z,99.99
2019-01-19T03:07:42.301Z,99.99
2019-01-19T03:08:42.282Z,99.99
2019-01-19T03:09:42.264Z,99.99
2019-01-19T03:10:42.245Z,99.99
2019-01-19T03:11:42.225Z,99.99
2019-01-19T03:12:42.207Z,99.99
2019-01-19T03:13:42.188Z,99.99
2019-01-19T03:14:42.169Z,99.99
2019-01-19T03:15:42.158Z,99.99
2019-01-19T03:16:42.134Z,99.99
2019-01-19T03:17:42.113Z,99.99
2019-01-19T03:18:42.093Z,99.99
2019-01-19T03:19:42.076Z,99.99
2019-01-19T03:20:42.058Z,99.99
2019-01-19T03:21:42.044Z,99.99
2019-01-19T03:22:42.019Z,99.99
2019-01-19T03:23:42.013Z,99.99
2019-01-19T03:24:41.984Z,99.99
2019-01-19T03:25:41.963Z,99.99
2019-01-19T03:26:41.944Z,99.99
2019-01-19T03:27:41.926Z,99.99
2019-01-19T03:28:41.914Z,99.99
2019-01-19T03:29:41.887Z,99.99
2019-01-19T03:30:41.869Z,99.99
2019-01-19T03:31:41.851Z,99.99
2019-01-19T03:32:41.834Z,99.99
2019-01-19T03:33:41.812Z,99.99
2019-01-19T03:34:41.794Z,99.99
2019-01-19T03:35:41.776Z,99.99
2019-01-19T03:36:41.757Z,99.99
2019-01-19T03:37:41.737Z,99.99
2019-01-19T03:38:41.718Z,99.99
2019-01-19T03:39:41.702Z,99.99
2019-01-19T03:40:41.682Z,99.99
2019-01-19T03:41:41.662Z,99.99
2019-01-19T03:42:41.645Z,99.99
2019-01-19T03:43:41.627Z,99.99
2019-01-19T03:44:41.607Z,99.99
2019-01-19T03:45:41.587Z,99.99
2019-01-19T03:46:41.571Z,99.99
2019-01-19T03:47:41.550Z,99.99
2019-01-19T03:48:41.531Z,99.99
2019-01-19T03:49:41.512Z,99.99
2019-01-19T03:50:41.493Z,99.99
2019-01-19T03:51:41.474Z,99.99
2019-01-19T03:52:41.462Z,99.99
2019-01-19T03:53:41.434Z,99.99
2019-01-19T03:54:41.418Z,99.99
2019-01-19T03:55:41.397Z,99.99
2019-01-19T03:56:41.381Z,99.99
2019-01-19T03:57:41.362Z,99.99
2019-01-19T03:58:41.342Z,99.99
2019-01-19T03:59:41.323Z,99.99
2019-01-19T04:00:41.305Z,99.99
2019-01-19T04:01:41.284Z,99.99
2019-01-19T04:02:41.276Z,99.99
2019-01-19T04:03:41.246Z,99.99
2019-01-19T04:04:41.229Z,99.99
2019-01-19T04:05:41.209Z,99.99
2019-01-19T04:06:41.191Z,99.99
2019-01-19T04:07:41.173Z,99.99
2019-01-19T04:08:41.153Z,99.99
2019-01-19T04:09:41.133Z,99.99
2019-01-19T04:10:41.115Z,99.99
2019-01-19T04:11:41.096Z,99.99
2019-01-19T04:12:41.076Z,99.99
2019-01-19T04:13:41.056Z,99.99
2019-01-19T04:14:41.039Z,99.99
2019-01-19T04:15:41.020Z,99.99
2019-01-19T04:16:41.002Z,99.99
2019-01-19T04:17:40.980Z,99.99
2019-01-19T04:18:40.964Z,99.99
2019-01-19T04:19:40.957Z,99.99
2019-01-19T04:20:40.927Z,99.99
2019-01-19T04:21:40.907Z,99.99
2019-01-19T04:22:40.888Z,99.99
2019-01-19T04:23:40.868Z,99.99
2019-01-19T04:24:40.858Z,99.99
2019-01-19T04:25:40.839Z,99.99
2019-01-19T04:26:40.811Z,99.99
2019-01-19T04:27:40.791Z,99.99
2019-01-19T04:28:40.773Z,99.99
2019-01-19T04:29:40.754Z,99.99
2019-01-19T04:30:40.735Z,99.99
2019-01-19T04:31:40.716Z,99.99
2019-01-19T04:32:40.697Z,99.99
2019-01-19T04:33:40.681Z,99.99
2019-01-19T04:34:40.660Z,99.99
2019-01-19T04:35:40.639Z,99.99
2019-01-19T04:36:40.621Z,99.99
2019-01-19T04:37:40.601Z,99.99
2019-01-19T04:38:40.584Z,99.99
2019-01-19T04:39:40.563Z,99.99
2019-01-19T04:40:40.545Z,99.99
2019-01-19T04:41:40.523Z,99.99
2019-01-19T04:42:40.506Z,99.99
2019-01-19T04:43:40.487Z,99.99
2019-01-19T04:44:40.468Z,99.99
2019-01-19T04:45:40.448Z,99.99
2019-01-19T04:46:40.430Z,99.99
2019-01-19T04:47:40.410Z,99.99
2019-01-19T04:48:40.397Z,99.99
2019-01-19T04:49:40.371Z,99.99
2019-01-19T04:50:40.353Z,99.99
2019-01-19T04:51:40.333Z,99.99
2019-01-19T04:52:40.314Z,99.99
2019-01-19T04:53:40.294Z,99.99
2019-01-19T04:54:40.327Z,99.99
2019-01-19T04:55:40.257Z,99.99
2019-01-19T04:56:40.239Z,99.99
2019-01-19T04:57:40.224Z,99.99
2019-01-19T04:58:40.201Z,99.99
2019-01-19T04:59:40.182Z,99.99
2019-01-19T05:00:40.164Z,99.99
2019-01-19T05:01:40.142Z,99.99
2019-01-19T05:02:40.126Z,99.99
2019-01-19T05:03:40.105Z,99.99
2019-01-19T05:04:40.098Z,99.99
2019-01-19T05:05:40.068Z,99.99
2019-01-19T05:06:40.047Z,99.99
2019-01-19T05:07:40.028Z,99.99
2019-01-19T05:08:40.009Z,99.99
2019-01-19T05:09:40.008Z,99.99
2019-01-19T05:10:39.970Z,99.99
2019-01-19T05:11:39.951Z,99.99
2019-01-19T05:12:39.932Z,99.99
2019-01-19T05:13:39.912Z,99.99
2019-01-19T05:14:39.896Z,99.99
2019-01-19T05:15:39.874Z,99.99
2019-01-19T05:16:39.856Z,99.99
2019-01-19T05:17:39.841Z,99.99
2019-01-19T05:18:39.818Z,99.99
2019-01-19T05:19:39.796Z,99.99
2019-01-19T05:20:39.777Z,99.99
2019-01-19T05:21:39.761Z,99.99
2019-01-19T05:22:39.740Z,99.99
2019-01-19T05:23:39.723Z,99.99
2019-01-19T05:24:39.701Z,99.99
2019-01-19T05:25:39.682Z,99.99
2019-01-19T05:26:39.663Z,99.99
2019-01-19T05:27:39.650Z,99.99
2019-01-19T05:28:39.627Z,99.99
2019-01-19T05:29:39.608Z,99.99
2019-01-19T05:30:39.591Z,99.99
2019-01-19T05:31:39.568Z,99.99
2019-01-19T05:32:39.547Z,99.99
2019-01-19T05:33:39.528Z,99.99
2019-01-19T05:34:39.522Z,99.99
2019-01-19T05:35:39.489Z,99.99
2019-01-19T05:36:39.481Z,99.99
2019-01-19T05:37:39.452Z,99.99
2019-01-19T05:38:39.433Z,99.99
2019-01-19T05:39:39.414Z,99.99
2019-01-19T05:40:39.396Z,99.99
2019-01-19T05:41:39.376Z,99.99
2019-01-19T05:42:39.355Z,99.99
2019-01-19T05:43:39.339Z,99.99
2019-01-19T05:44:39.317Z,99.99
2019-01-19T05:45:39.300Z,99.99
2019-01-19T05:46:39.281Z,99.99
2019-01-19T05:47:39.264Z,99.99
2019-01-19T05:48:39.240Z,99.99
2019-01-19T05:49:39.224Z,99.99
2019-01-19T05:50:39.201Z,99.99
2019-01-19T05:51:39.185Z,99.99
2019-01-19T05:52:39.165Z,99.99
2019-01-19T05:53:39.146Z,99.99
2019-01-19T05:54:39.126Z,99.99
2019-01-19T05:55:39.105Z,99.99
2019-01-19T05:56:39.088Z,99.99
2019-01-19T05:57:39.067Z,99.99
2019-01-19T05:58:39.048Z,99.99
2019-01-19T05:59:39.027Z,99.99
2019-01-19T06:00:39.010Z,99.99
2019-01-19T06:01:38.989Z,99.99
2019-01-19T06:02:38.972Z,99.99
2019-01-19T06:03:38.954Z,99.99
2019-01-19T06:04:38.934Z,99.99
2019-01-19T06:05:38.916Z,99.99
2019-01-19T06:06:46.389Z,99.99
2019-01-19T06:07:38.878Z,99.99
2019-01-19T06:08:38.858Z,99.99
2019-01-19T06:09:38.838Z,99.99
2019-01-19T06:10:38.818Z,99.99
2019-01-19T06:11:38.800Z,99.99
2019-01-19T06:12:38.782Z,99.99
2019-01-19T06:13:38.809Z,99.99
2019-01-19T06:14:38.742Z,99.99
2019-01-19T06:15:38.724Z,99.99
2019-01-19T06:16:38.706Z,99.99
2019-01-19T06:17:38.688Z,99.99
2019-01-19T06:18:38.666Z,99.99
2019-01-19T06:19:38.648Z,99.99
2019-01-19T06:20:38.627Z,99.99
2019-01-19T06:21:38.607Z,99.99
2019-01-19T06:22:38.591Z,99.99
2019-01-19T06:23:38.569Z,99.99
2019-01-19T06:24:38.550Z,99.99
2019-01-19T06:25:38.536Z,99.99
2019-01-19T06:26:38.513Z,99.99
2019-01-19T06:27:38.494Z,99.99
2019-01-19T06:28:38.479Z,99.99
2019-01-19T06:29:38.454Z,99.99
2019-01-19T06:30:38.436Z,99.99
2019-01-19T06:31:38.441Z,99.99
2019-01-19T06:32:38.399Z,99.99
2019-01-19T06:33:38.381Z,99.99
2019-01-19T06:34:38.359Z,99.99
2019-01-19T06:35:38.339Z,99.99
2019-01-19T06:36:38.323Z,99.99
2019-01-19T06:37:38.302Z,99.99
2019-01-19T06:38:38.287Z,99.99
2019-01-19T06:39:38.265Z,99.99
2019-01-19T06:40:38.249Z,99.99
2019-01-19T06:41:38.227Z,99.99
2019-01-19T06:42:38.207Z,99.99
2019-01-19T06:43:38.186Z,99.99
2019-01-19T06:44:38.168Z,99.99
2019-01-19T06:45:38.148Z,99.99
2019-01-19T06:46:38.131Z,99.99
2019-01-19T06:47:38.112Z,99.99
2019-01-19T06:48:38.092Z,99.99
2019-01-19T06:49:38.072Z,99.99
2019-01-19T06:50:38.053Z,99.99
2019-01-19T06:51:38.033Z,99.99
2019-01-19T06:52:38.014Z,99.99
2019-01-19T06:53:37.993Z,99.99
2019-01-19T06:54:37.976Z,99.99
2019-01-19T06:55:37.957Z,99.99
2019-01-19T06:56:37.940Z,99.99
2019-01-19T06:57:37.919Z,99.99
2019-01-19T06:58:37.901Z,99.99
2019-01-19T06:59:37.884Z,99.99
2019-01-19T07:00:37.861Z,99.99
2019-01-19T07:01:37.842Z,99.99
2019-01-19T07:02:37.821Z,99.99
2019-01-19T07:03:37.803Z,99.99
2019-01-19T07:04:37.784Z,99.99
2019-01-19T07:05:37.766Z,99.99
2019-01-19T07:06:37.743Z,99.99
2019-01-19T07:07:37.725Z,99.99
2019-01-19T07:08:37.706Z,99.99
2019-01-19T07:09:37.687Z,99.99
2019-01-19T07:10:37.669Z,99.99
2019-01-19T07:11:37.650Z,99.99
2019-01-19T07:12:37.630Z,99.99
2019-01-19T07:13:37.610Z,99.99
2019-01-19T07:14:37.591Z,99.99
2019-01-19T07:15:37.571Z,99.99
2019-01-19T07:16:37.553Z,99.99
2019-01-19T07:17:37.534Z,99.99
2019-01-19T07:18:37.515Z,99.99
2019-01-19T07:19:37.496Z,99.99
2019-01-19T07:20:37.476Z,99.99
2019-01-19T07:21:37.461Z,99.99
2019-01-19T07:22:37.439Z,99.99
2019-01-19T07:23:37.419Z,99.99
2019-01-19T07:24:37.403Z,99.99
2019-01-19T07:25:37.386Z,99.99
2019-01-19T07:26:37.361Z,99.99
2019-01-19T07:27:37.342Z,99.99
2019-01-19T07:28:37.325Z,99.99
2019-01-19T07:29:37.301Z,99.99
2019-01-19T07:30:37.282Z,99.99
2019-01-19T07:31:37.263Z,99.99
2019-01-19T07:32:37.247Z,99.99
2019-01-19T07:33:37.224Z,99.99
2019-01-19T07:34:37.254Z,99.99
2019-01-19T07:35:37.190Z,99.99
2019-01-19T07:36:37.170Z,99.99
2019-01-19T07:37:37.150Z,99.99
2019-01-19T07:38:37.129Z,99.99
2019-01-19T07:39:37.121Z,99.99
2019-01-19T07:40:37.094Z,99.99
2019-01-19T07:41:37.072Z,99.99
2019-01-19T07:42:37.062Z,99.99
2019-01-19T07:43:37.034Z,99.99
2019-01-19T07:44:37.015Z,99.99
2019-01-19T07:45:36.997Z,99.99
2019-01-19T07:46:36.977Z,99.99
2019-01-19T07:47:36.958Z,99.99
2019-01-19T07:48:36.939Z,99.99
2019-01-19T07:49:36.921Z,99.99
2019-01-19T07:50:36.903Z,99.99
2019-01-19T07:51:36.882Z,99.99
2019-01-19T07:52:36.862Z,99.99
2019-01-19T07:53:36.844Z,99.99
2019-01-19T07:54:36.827Z,99.99
2019-01-19T07:55:36.805Z,99.99
2019-01-19T07:56:36.786Z,99.99
2019-01-19T07:57:36.771Z,99.99
2019-01-19T07:58:36.747Z,99.99
2019-01-19T07:59:36.730Z,99.99
2019-01-19T08:00:36.710Z,99.99
2019-01-19T08:01:36.692Z,99.99
2019-01-19T08:02:36.671Z,99.99
2019-01-19T08:03:36.655Z,99.99
2019-01-19T08:04:36.636Z,99.99
2019-01-19T08:05:36.615Z,99.99
2019-01-19T08:06:36.598Z,99.99
2019-01-19T08:07:36.578Z,99.99
2019-01-19T08:08:36.556Z,99.99
2019-01-19T08:09:36.537Z,99.99
2019-01-19T08:10:36.518Z,99.99
2019-01-19T08:11:36.499Z,99.99
2019-01-19T08:12:36.480Z,99.99
2019-01-19T08:13:36.461Z,99.99
2019-01-19T08:14:36.442Z,99.99
2019-01-19T08:15:36.425Z,99.99
2019-01-19T08:16:36.404Z,99.99
2019-01-19T08:17:36.385Z,99.99
2019-01-19T08:18:36.368Z,99.99
2019-01-19T08:19:36.347Z,99.99
2019-01-19T08:20:36.328Z,99.99
2019-01-19T08:21:36.308Z,99.99
2019-01-19T08:22:36.292Z,99.99
2019-01-19T08:23:36.274Z,99.99
2019-01-19T08:24:36.257Z,99.99
2019-01-19T08:25:36.238Z,99.99
2019-01-19T08:26:36.218Z,99.99
2019-01-19T08:27:36.196Z,99.99
2019-01-19T08:28:36.179Z,99.99
2019-01-19T08:29:36.160Z,99.99
2019-01-19T08:30:36.140Z,99.99
2019-01-19T08:31:36.123Z,99.99
2019-01-19T08:32:36.105Z,99.99
2019-01-19T08:33:36.083Z,99.99
2019-01-19T08:34:36.065Z,99.99
2019-01-19T08:35:36.052Z,99.99
2019-01-19T08:36:36.030Z,99.99
2019-01-19T08:37:36.010Z,99.99
2019-01-19T08:38:35.991Z,99.99
2019-01-19T08:39:35.972Z,99.99
2019-01-19T08:40:35.955Z,99.99
2019-01-19T08:41:35.932Z,99.99
2019-01-19T08:42:35.918Z,99.99
2019-01-19T08:43:35.896Z,99.99
2019-01-19T08:44:35.877Z,99.99
2019-01-19T08:45:35.858Z,99.99
2019-01-19T08:46:35.841Z,99.99
2019-01-19T08:47:35.821Z,99.99
2019-01-19T08:48:35.802Z,99.99
2019-01-19T08:49:35.783Z,99.99
2019-01-19T08:50:35.766Z,99.99
2019-01-19T08:51:35.747Z,99.99
2019-01-19T08:52:35.726Z,99.99
2019-01-19T08:53:35.714Z,99.99
2019-01-19T08:54:35.690Z,99.99
2019-01-19T08:55:35.672Z,99.99
2019-01-19T08:56:35.652Z,99.99
2019-01-19T08:57:35.633Z,99.99
2019-01-19T08:58:35.622Z,99.99
2019-01-19T08:59:35.595Z,99.99
2019-01-19T09:00:35.581Z,99.99
2019-01-19T09:01:35.558Z,99.99
2019-01-19T09:02:35.542Z,99.99
2019-01-19T09:03:35.523Z,99.99
2019-01-19T09:04:35.506Z,99.99
2019-01-19T09:05:35.485Z,99.99
2019-01-19T09:06:35.464Z,99.99
2019-01-19T09:07:35.448Z,99.99
2019-01-19T09:08:35.429Z,99.99
2019-01-19T09:09:35.411Z,99.99
2019-01-19T09:10:35.396Z,99.99
2019-01-19T09:11:35.375Z,99.99
2019-01-19T09:12:35.357Z,99.99
2019-01-19T09:13:35.336Z,99.99
2019-01-19T09:14:35.319Z,99.99
2019-01-19T09:15:35.301Z,99.99
2019-01-19T09:16:39.593Z,99.99
2019-01-19T09:17:35.265Z,99.99
2019-01-19T09:18:35.245Z,99.99
2019-01-19T09:19:35.226Z,99.99
2019-01-19T09:20:35.209Z,99.99
2019-01-19T09:21:35.193Z,99.99
2019-01-19T09:22:35.170Z,99.99
2019-01-19T09:23:35.153Z,99.99
2019-01-19T09:24:35.141Z,99.99
2019-01-19T09:25:35.118Z,99.99
2019-01-19T09:26:35.100Z,99.99
2019-01-19T09:27:35.080Z,99.99
2019-01-19T09:28:35.063Z,99.99
2019-01-19T09:29:35.045Z,99.99
2019-01-19T09:30:35.027Z,99.99
2019-01-19T09:31:35.010Z,99.99
2019-01-19T09:32:34.991Z,99.99
2019-01-19T09:33:34.974Z,99.99
2019-01-19T09:34:34.953Z,99.99
2019-01-19T09:35:34.934Z,99.99
2019-01-19T09:36:34.918Z,99.99
2019-01-19T09:37:40.828Z,99.99
2019-01-19T09:38:34.881Z,99.99
2019-01-19T09:39:34.863Z,99.99
2019-01-19T09:40:34.845Z,99.99
2019-01-19T09:41:34.826Z,99.99
2019-01-19T09:42:34.808Z,99.99
2019-01-19T09:43:34.793Z,99.99
2019-01-19T09:44:34.772Z,99.99
2019-01-19T09:45:34.759Z,99.99
2019-01-19T09:46:34.744Z,99.99
2019-01-19T09:47:34.721Z,99.99
2019-01-19T09:48:34.701Z,99.99
2019-01-19T09:49:34.685Z,99.99
2019-01-19T09:50:34.672Z,99.99
2019-01-19T09:51:34.648Z,99.99
2019-01-19T09:52:34.634Z,99.99
2019-01-19T09:53:34.617Z,99.99
2019-01-19T09:54:34.593Z,99.99
2019-01-19T09:55:34.578Z,99.99
2019-01-19T09:56:34.561Z,99.99
2019-01-19T09:57:34.543Z,99.99
2019-01-19T09:58:34.522Z,99.99
2019-01-19T09:59:34.506Z,99.99
2019-01-19T10:00:36.648Z,99.99
2019-01-19T10:01:34.469Z,99.99
2019-01-19T10:02:34.453Z,99.99
2019-01-19T10:03:34.435Z,99.99
2019-01-19T10:04:34.418Z,99.99
2019-01-19T10:05:34.399Z,99.99
2019-01-19T10:06:34.383Z,99.99
2019-01-19T10:07:34.365Z,99.99
2019-01-19T10:08:34.348Z,99.99
2019-01-19T10:09:34.328Z,99.99
2019-01-19T10:10:34.359Z,99.99
2019-01-19T10:11:34.296Z,99.99
2019-01-19T10:12:34.278Z,98.53
2019-01-19T10:13:34.261Z,99.66
2019-01-19T10:14:34.243Z,99.99
2019-01-19T10:15:34.228Z,99.99
2019-01-19T10:16:34.210Z,99.99
2019-01-19T10:17:34.190Z,99.99
2019-01-19T10:18:34.177Z,99.99
2019-01-19T10:19:34.158Z,99.99
2019-01-19T10:20:34.146Z,99.99
2019-01-19T10:21:34.124Z,99.99
2019-01-19T10:22:34.112Z,99.99
2019-01-19T10:23:34.091Z,99.99
2019-01-19T10:24:34.075Z,99.99
2019-01-19T10:25:34.056Z,99.66
2019-01-19T10:26:34.041Z,99.29
2019-01-19T10:27:37.484Z,99.99
2019-01-19T10:28:34.005Z,99.99
2019-01-19T10:29:33.987Z,99.99
2019-01-19T10:30:33.971Z,99.99
2019-01-19T10:31:33.953Z,99.99
2019-01-19T10:32:33.936Z,99.99
2019-01-19T10:33:33.918Z,99.99
2019-01-19T10:34:33.902Z,99.99
2019-01-19T10:35:33.884Z,99.99
2019-01-19T10:36:33.868Z,99.99
2019-01-19T10:37:33.851Z,99.99
2019-01-19T10:38:33.835Z,99.99
2019-01-19T10:39:33.820Z,99.99
2019-01-19T10:40:33.800Z,98.49
2019-01-19T10:41:40.669Z,99.99
2019-01-19T10:42:33.769Z,99.05
2019-01-19T10:43:33.753Z,99.99
2019-01-19T10:44:33.735Z,98.96
2019-01-19T10:45:33.717Z,98.01
2019-01-19T10:46:33.701Z,99.43
2019-01-19T10:47:33.685Z,99.99
2019-01-19T10:48:33.668Z,99.99
2019-01-19T10:49:33.651Z,99.99
2019-01-19T10:50:33.636Z,99.99
2019-01-19T10:51:33.618Z,99.99
2019-01-19T10:52:33.604Z,99.99
2019-01-19T10:53:33.584Z,99.52
2019-01-19T10:54:33.567Z,99.99
2019-01-19T10:55:33.551Z,99.99
2019-01-19T10:56:33.538Z,97.44
2019-01-19T10:57:33.520Z,97.54
2019-01-19T10:58:33.501Z,97.16
2019-01-19T10:59:33.487Z,97.92
2019-01-19T11:00:33.469Z,99.71
2019-01-19T11:01:33.452Z,99.05
2019-01-19T11:02:33.436Z,97.92
2019-01-19T11:03:33.424Z,98.77
2019-01-19T11:04:33.405Z,96.97
2019-01-19T11:05:33.389Z,96.40
2019-01-19T11:06:33.372Z,99.33
2019-01-19T11:07:33.358Z,98.86
2019-01-19T11:08:33.346Z,97.82
2019-01-19T11:09:33.326Z,99.81
2019-01-19T11:10:33.305Z,99.99
2019-01-19T11:11:33.289Z,99.67
2019-01-19T11:12:33.275Z,99.99
2019-01-19T11:13:33.255Z,97.78
2019-01-19T11:14:33.242Z,96.07
2019-01-19T11:15:33.225Z,95.50
2019-01-19T11:16:33.209Z,93.89
2019-01-19T11:17:33.191Z,99.99
2019-01-19T11:18:33.179Z,99.99
2019-01-19T11:19:33.162Z,95.88
2019-01-19T11:20:33.144Z,92.76
2019-01-19T11:21:33.131Z,93.61
2019-01-19T11:22:33.113Z,97.87
2019-01-19T11:23:39.600Z,99.99
2019-01-19T11:24:33.079Z,99.06
2019-01-19T11:25:33.064Z,97.07
2019-01-19T11:26:33.049Z,96.59
2019-01-19T11:27:33.035Z,94.51
2019-01-19T11:28:33.015Z,90.72
2019-01-19T11:29:33.000Z,89.01
2019-01-19T11:30:32.985Z,90.15
2019-01-19T11:31:32.967Z,92.99
2019-01-19T11:32:32.952Z,90.91
2019-01-19T11:33:32.938Z,88.25
2019-01-19T11:34:32.923Z,90.72
2019-01-19T11:35:32.906Z,91.28
2019-01-19T11:36:32.891Z,91.00
2019-01-19T11:37:32.872Z,90.34
2019-01-19T11:38:32.858Z,89.58
2019-01-19T11:39:32.843Z,87.77
2019-01-19T11:40:32.826Z,90.62
2019-01-19T11:41:32.812Z,92.28
2019-01-19T11:42:32.796Z,92.52
2019-01-19T11:43:32.782Z,91.19
2019-01-19T11:44:32.766Z,90.15
2019-01-19T11:45:32.749Z,91.95
2019-01-19T11:46:32.733Z,95.65
2019-01-19T11:47:32.770Z,91.66
2019-01-19T11:48:32.705Z,90.43
2019-01-19T11:49:32.688Z,89.48
2019-01-19T11:50:32.670Z,90.43
2019-01-19T11:51:32.657Z,88.16
2019-01-19T11:52:32.646Z,86.16
2019-01-19T11:53:32.625Z,86.50
2019-01-19T11:54:32.610Z,88.11
2019-01-19T11:55:32.593Z,88.21
2019-01-19T11:56:32.579Z,88.40
2019-01-19T11:57:32.563Z,88.40
2019-01-19T11:58:32.548Z,93.04
2019-01-19T11:59:32.533Z,90.39
2019-01-19T12:00:32.516Z,90.10
2019-01-19T12:01:32.503Z,92.94
2019-01-19T12:02:36.906Z,96.26
2019-01-19T12:03:32.474Z,94.46
2019-01-19T12:04:33.041Z,91.62
2019-01-19T12:05:32.439Z,88.59
2019-01-19T12:06:32.426Z,89.53
2019-01-19T12:07:32.409Z,88.30
2019-01-19T12:08:32.392Z,89.63
2019-01-19T12:09:32.379Z,89.34
2019-01-19T12:10:32.361Z,91.62
2019-01-19T12:11:32.346Z,92.09
2019-01-19T12:12:32.331Z,90.39
2019-01-19T12:13:32.315Z,92.38
2019-01-19T12:14:32.298Z,89.72
2019-01-19T12:15:32.284Z,89.44
2019-01-19T12:16:32.271Z,96.92
2019-01-19T12:17:32.252Z,93.99
2019-01-19T12:18:32.242Z,92.76
2019-01-19T12:19:32.221Z,94.08
2019-01-19T12:20:32.205Z,90.48
2019-01-19T12:21:32.188Z,93.13
2019-01-19T12:22:32.175Z,89.72
2019-01-19T12:23:32.158Z,88.78
2019-01-19T12:24:32.143Z,90.20
2019-01-19T12:25:32.125Z,89.91
2019-01-19T12:26:32.112Z,88.44
2019-01-19T12:27:32.094Z,90.43
2019-01-19T12:28:32.082Z,95.36
2019-01-19T12:29:32.064Z,91.09
2019-01-19T12:30:32.050Z,89.48
2019-01-19T12:31:32.036Z,86.74
2019-01-19T12:32:32.019Z,85.88
2019-01-19T12:33:32.005Z,86.55
2019-01-19T12:34:31.987Z,91.28
2019-01-19T12:35:31.972Z,87.87
2019-01-19T12:36:32.085Z,86.64
2019-01-19T12:37:31.941Z,86.07
2019-01-19T12:38:31.924Z,86.93
2019-01-19T12:39:31.908Z,85.60
2019-01-19T12:40:31.896Z,85.31
2019-01-19T12:41:31.876Z,84.70
2019-01-19T12:42:31.863Z,87.07
2019-01-19T12:43:31.849Z,88.30
2019-01-19T12:44:31.831Z,86.60
2019-01-19T12:45:31.813Z,87.26
2019-01-19T12:46:31.799Z,87.92
2019-01-19T12:47:31.786Z,87.92
2019-01-19T12:48:31.768Z,88.49
2019-01-19T12:49:31.752Z,91.14
2019-01-19T12:50:31.738Z,91.33
2019-01-19T12:51:31.722Z,92.47
2019-01-19T12:52:31.707Z,88.96